Ashford, CT

3:15 PM EST on January 27, 2015 (GMT -0500)
Windham | Change Station
CLOSE
Current Station
Airport
Location: Willimantic,
Elevation: 246 ft
Nearby Weather Stations
Active Advisory: Winter Storm Warning Active Notice: Public Information Statement

Elev 246 ft 41.74 °N, 72.18 °W | Updated 23 minutes ago

Snow
Snow
20 °F
Feels Like 6 °F
N
15
Wind Variable Wind from NNW
Gusts 22 mph

Today
High -- | Low -- °F
--% Chance of Precip.
Yesterday
High -- | Low -- °F
Precip. -- in
7:06 AM 4:57 PM
First Quarter, 57% visible
Pressure 29.57 in
Visibility 0.8 miles
Clouds Mostly Cloudy 2100 ft
Overcast 3600 ft
Windchill 6 °F
Dew Point 13 °F
Humidity 74%
Rainfall 0.02 in
Snow Depth Not available.
UV 0 out of 12
Pollen .10 out of 12
Air Quality Not available.
Flu Activity Not available.
METAR KIJD 271952Z AUTO 33013G19KT 3/4SM -SN BKN021 OVC036 M07/M11 A2955 RMK AO2 SLP011 P0000 T10671106

More Conditions Fewer Conditions

Pressure 29.57 in
Visibility 0.8 miles
Clouds Mostly Cloudy 2100 ft
Overcast 3600 ft
Windchill 6 °F
Dew Point 13 °F
Humidity 74%
Rainfall 0.02 in
Snow Depth Not available.
UV 0 out of 12
Pollen .10 out of 12
Air Quality Not available.
Flu Activity Not available.
METAR KIJD 271952Z AUTO 33013G19KT 3/4SM -SN BKN021 OVC036 M07/M11 A2955 RMK AO2 SLP011 P0000 T10671106

More Conditions Fewer Conditions

10-Day Weather Forecast

Almanac

Astronomy

Jan. 27, 2015 Rise Set
Actual Time
Civil Twilight
Nautical Twilight
Astronomical Twilight
Moon
Length of Visible Light
Length of Day
Tomorrow will be .
, % of the Moon is Illuminated

Today's Extremes

State Highs State Lows

Community

WunderPhotos

Upload Photos

1,790,887 photos uploaded!

WunderBlogs® & News

Nearby

Air Quality

  Air Quality AQ Index Pollutant
Not available.

Snow Depth

Station Depth Elevation

Earthquake Activity

City Distance Mag. Time & Date
Minimum magnitude displayed is 2.5.

Coastal Water Temperatures

Place Temperature

Nearby Weather Stations